sensor_id;sensor_type;location;lat;lon;timestamp;P1;durP1;ratioP1;P2;durP2;ratioP2
20095;SDS011;10207;50.942;6.900;2023-03-01T00:01:22;12.77;;;7.33;;
20095;SDS011;10207;50.942;6.900;2023-03-01T00:03:48;13.90;;;7.30;;
20095;SDS011;10207;50.942;6.900;2023-03-01T00:06:14;15.37;;;8.23;;
20095;SDS011;10207;50.942;6.900;2023-03-01T00:08:41;17.70;;;9.00;;
20095;SDS011;10207;50.942;6.900;2023-03-01T00:11:14;18.13;;;10.63;;
20095;SDS011;10207;50.942;6.900;2023-03-01T00:13:41;14.47;;;8.40;;
20095;SDS011;10207;50.942;6.900;2023-03-01T00:16:08;17.07;;;8.23;;
20095;SDS011;10207;50.942;6.900;2023-03-01T00:18:35;11.90;;;7.13;;
20095;SDS011;10207;50.942;6.900;2023-03-01T00:21:01;12.97;;;6.87;;
20095;SDS011;10207;50.942;6.900;2023-03-01T00:23:27;14.40;;;6.40;;
20095;SDS011;10207;50.942;6.900;2023-03-01T00:25:53;13.27;;;6.60;;
20095;SDS011;10207;50.942;6.900;2023-03-01T00:28:20;9.97;;;5.70;;
20095;SDS011;10207;50.942;6.900;2023-03-01T00:30:46;14.67;;;8.10;;
20095;SDS011;10207;50.942;6.900;2023-03-01T00:33:12;11.80;;;5.93;;
20095;SDS011;10207;50.942;6.900;2023-03-01T00:35:38;11.30;;;6.20;;
20095;SDS011;10207;50.942;6.900;2023-03-01T00:38:05;12.60;;;7.13;;
20095;SDS011;10207;50.942;6.900;2023-03-01T00:40:31;12.77;;;6.80;;
20095;SDS011;10207;50.942;6.900;2023-03-01T00:42:58;14.93;;;7.10;;
20095;SDS011;10207;50.942;6.900;2023-03-01T00:45:24;14.07;;;7.97;;
20095;SDS011;10207;50.942;6.900;2023-03-01T00:47:50;12.03;;;7.47;;
20095;SDS011;10207;50.942;6.900;2023-03-01T00:50:16;14.37;;;7.37;;
20095;SDS011;10207;50.942;6.900;2023-03-01T00:52:43;13.50;;;6.77;;
20095;SDS011;10207;50.942;6.900;2023-03-01T00:55:09;8.37;;;5.30;;
20095;SDS011;10207;50.942;6.900;2023-03-01T00:57:35;9.87;;;5.83;;
20095;SDS011;10207;50.942;6.900;2023-03-01T01:00:01;11.57;;;6.47;;
20095;SDS011;10207;50.942;6.900;2023-03-01T01:02:27;10.93;;;6.07;;
20095;SDS011;10207;50.942;6.900;2023-03-01T01:04:53;9.20;;;5.73;;
20095;SDS011;10207;50.942;6.900;2023-03-01T01:07:19;12.07;;;6.00;;
20095;SDS011;10207;50.942;6.900;2023-03-01T01:09:46;9.50;;;5.70;;
20095;SDS011;10207;50.942;6.900;2023-03-01T01:12:12;16.90;;;6.80;;
20095;SDS011;10207;50.942;6.900;2023-03-01T01:14:38;12.60;;;7.10;;
20095;SDS011;10207;50.942;6.900;2023-03-01T01:17:04;13.10;;;7.67;;
20095;SDS011;10207;50.942;6.900;2023-03-01T01:19:30;12.30;;;6.83;;
20095;SDS011;10207;50.942;6.900;2023-03-01T01:21:56;14.43;;;6.73;;
20095;SDS011;10207;50.942;6.900;2023-03-01T01:24:22;11.43;;;6.40;;
20095;SDS011;10207;50.942;6.900;2023-03-01T01:26:48;11.80;;;6.50;;
20095;SDS011;10207;50.942;6.900;2023-03-01T01:29:14;9.90;;;6.00;;
20095;SDS011;10207;50.942;6.900;2023-03-01T01:31:41;9.73;;;5.90;;
20095;SDS011;10207;50.942;6.900;2023-03-01T01:34:07;11.00;;;5.80;;
20095;SDS011;10207;50.942;6.900;2023-03-01T01:36:34;10.63;;;6.23;;
20095;SDS011;10207;50.942;6.900;2023-03-01T01:39:00;14.00;;;6.90;;
20095;SDS011;10207;50.942;6.900;2023-03-01T01:41:26;11.07;;;6.50;;
20095;SDS011;10207;50.942;6.900;2023-03-01T01:46:41;10.73;;;6.33;;
20095;SDS011;10207;50.942;6.900;2023-03-01T01:51:39;13.97;;;6.77;;
20095;SDS011;10207;50.942;6.900;2023-03-01T01:54:08;11.77;;;6.47;;
20095;SDS011;10207;50.942;6.900;2023-03-01T01:56:35;11.10;;;6.60;;
20095;SDS011;10207;50.942;6.900;2023-03-01T01:59:03;14.10;;;7.03;;
20095;SDS011;10207;50.942;6.900;2023-03-01T02:01:29;11.97;;;6.97;;
20095;SDS011;10207;50.942;6.900;2023-03-01T02:03:55;13.23;;;6.90;;
20095;SDS011;10207;50.942;6.900;2023-03-01T02:06:22;12.67;;;7.07;;
20095;SDS011;10207;50.942;6.900;2023-03-01T02:08:55;10.70;;;6.50;;
20095;SDS011;10207;50.942;6.900;2023-03-01T02:11:23;14.43;;;6.37;;
20095;SDS011;10207;50.942;6.900;2023-03-01T02:13:49;11.07;;;5.83;;
20095;SDS011;10207;50.942;6.900;2023-03-01T02:16:15;13.10;;;6.43;;
20095;SDS011;10207;50.942;6.900;2023-03-01T02:18:42;9.73;;;5.93;;
20095;SDS011;10207;50.942;6.900;2023-03-01T02:23:48;17.30;;;9.63;;
20095;SDS011;10207;50.942;6.900;2023-03-01T02:26:23;14.67;;;7.60;;
20095;SDS011;10207;50.942;6.900;2023-03-01T02:28:51;8.93;;;5.83;;
20095;SDS011;10207;50.942;6.900;2023-03-01T02:31:17;12.70;;;6.63;;
20095;SDS011;10207;50.942;6.900;2023-03-01T02:34:02;15.20;;;6.57;;
20095;SDS011;10207;50.942;6.900;2023-03-01T02:36:31;13.83;;;7.20;;
20095;SDS011;10207;50.942;6.900;2023-03-01T02:38:59;14.27;;;7.50;;
20095;SDS011;10207;50.942;6.900;2023-03-01T02:41:27;11.57;;;6.73;;
20095;SDS011;10207;50.942;6.900;2023-03-01T02:43:54;16.03;;;6.67;;
20095;SDS011;10207;50.942;6.900;2023-03-01T02:46:22;10.10;;;4.90;;
20095;SDS011;10207;50.942;6.900;2023-03-01T02:48:50;12.93;;;6.20;;
20095;SDS011;10207;50.942;6.900;2023-03-01T02:54:10;11.93;;;6.10;;
20095;SDS011;10207;50.942;6.900;2023-03-01T02:56:37;11.63;;;6.43;;
20095;SDS011;10207;50.942;6.900;2023-03-01T02:59:04;10.27;;;6.77;;
20095;SDS011;10207;50.942;6.900;2023-03-01T03:01:31;9.80;;;5.93;;
20095;SDS011;10207;50.942;6.900;2023-03-01T03:04:06;11.80;;;6.27;;
20095;SDS011;10207;50.942;6.900;2023-03-01T03:06:32;11.63;;;6.40;;
20095;SDS011;10207;50.942;6.900;2023-03-01T03:08:59;14.13;;;7.77;;
20095;SDS011;10207;50.942;6.900;2023-03-01T03:11:25;13.80;;;7.70;;
20095;SDS011;10207;50.942;6.900;2023-03-01T03:13:51;13.87;;;8.33;;
20095;SDS011;10207;50.942;6.900;2023-03-01T03:16:18;14.33;;;7.83;;
20095;SDS011;10207;50.942;6.900;2023-03-01T03:18:44;12.73;;;7.53;;
20095;SDS011;10207;50.942;6.900;2023-03-01T03:21:11;14.43;;;7.70;;
20095;SDS011;10207;50.942;6.900;2023-03-01T03:23:37;12.10;;;7.27;;
20095;SDS011;10207;50.942;6.900;2023-03-01T03:26:03;12.93;;;7.87;;
20095;SDS011;10207;50.942;6.900;2023-03-01T03:28:30;15.83;;;7.93;;
20095;SDS011;10207;50.942;6.900;2023-03-01T03:30:59;16.47;;;8.00;;
20095;SDS011;10207;50.942;6.900;2023-03-01T03:33:29;14.30;;;8.20;;
20095;SDS011;10207;50.942;6.900;2023-03-01T03:35:55;12.87;;;8.40;;
20095;SDS011;10207;50.942;6.900;2023-03-01T03:38:22;13.40;;;7.77;;
20095;SDS011;10207;50.942;6.900;2023-03-01T03:43:15;13.93;;;7.53;;
20095;SDS011;10207;50.942;6.900;2023-03-01T03:45:41;18.27;;;7.97;;
20095;SDS011;10207;50.942;6.900;2023-03-01T03:48:09;17.03;;;7.97;;
20095;SDS011;10207;50.942;6.900;2023-03-01T03:50:36;10.80;;;6.93;;
20095;SDS011;10207;50.942;6.900;2023-03-01T03:53:03;13.20;;;7.67;;
20095;SDS011;10207;50.942;6.900;2023-03-01T03:55:29;13.97;;;7.90;;
20095;SDS011;10207;50.942;6.900;2023-03-01T03:57:59;14.50;;;7.93;;
20095;SDS011;10207;50.942;6.900;2023-03-01T04:00:28;12.87;;;7.37;;
20095;SDS011;10207;50.942;6.900;2023-03-01T04:02:54;16.10;;;8.17;;
20095;SDS011;10207;50.942;6.900;2023-03-01T04:05:22;12.97;;;8.10;;
20095;SDS011;10207;50.942;6.900;2023-03-01T04:07:48;13.60;;;7.83;;
20095;SDS011;10207;50.942;6.900;2023-03-01T04:10:15;13.47;;;7.20;;
20095;SDS011;10207;50.942;6.900;2023-03-01T04:12:42;13.83;;;7.80;;
20095;SDS011;10207;50.942;6.900;2023-03-01T04:15:09;13.80;;;8.03;;
20095;SDS011;10207;50.942;6.900;2023-03-01T04:17:39;13.67;;;7.70;;
20095;SDS011;10207;50.942;6.900;2023-03-01T04:20:05;11.77;;;7.33;;
20095;SDS011;10207;50.942;6.900;2023-03-01T04:22:32;17.20;;;7.90;;
20095;SDS011;10207;50.942;6.900;2023-03-01T04:24:59;12.33;;;7.00;;
20095;SDS011;10207;50.942;6.900;2023-03-01T04:27:35;15.03;;;7.47;;
20095;SDS011;10207;50.942;6.900;2023-03-01T04:30:02;15.10;;;8.33;;
20095;SDS011;10207;50.942;6.900;2023-03-01T04:32:29;15.20;;;9.00;;
20095;SDS011;10207;50.942;6.900;2023-03-01T04:34:55;14.70;;;8.67;;
20095;SDS011;10207;50.942;6.900;2023-03-01T04:37:21;16.90;;;8.50;;
20095;SDS011;10207;50.942;6.900;2023-03-01T04:39:47;14.50;;;8.53;;
20095;SDS011;10207;50.942;6.900;2023-03-01T04:42:16;14.03;;;9.00;;
20095;SDS011;10207;50.942;6.900;2023-03-01T04:44:45;19.07;;;8.60;;
20095;SDS011;10207;50.942;6.900;2023-03-01T04:47:11;15.50;;;9.77;;
20095;SDS011;10207;50.942;6.900;2023-03-01T04:49:37;18.83;;;9.23;;
20095;SDS011;10207;50.942;6.900;2023-03-01T04:52:04;17.93;;;9.50;;
20095;SDS011;10207;50.942;6.900;2023-03-01T04:54:30;19.97;;;9.70;;
20095;SDS011;10207;50.942;6.900;2023-03-01T04:56:56;15.30;;;9.77;;
20095;SDS011;10207;50.942;6.900;2023-03-01T04:59:22;17.37;;;10.17;;
20095;SDS011;10207;50.942;6.900;2023-03-01T05:01:51;23.37;;;11.23;;
20095;SDS011;10207;50.942;6.900;2023-03-01T05:04:17;22.23;;;11.37;;
20095;SDS011;10207;50.942;6.900;2023-03-01T05:06:44;19.07;;;9.90;;
20095;SDS011;10207;50.942;6.900;2023-03-01T05:09:10;19.60;;;10.43;;
20095;SDS011;10207;50.942;6.900;2023-03-01T05:11:37;19.73;;;10.40;;
20095;SDS011;10207;50.942;6.900;2023-03-01T05:14:03;20.80;;;10.10;;
20095;SDS011;10207;50.942;6.900;2023-03-01T05:16:30;19.73;;;10.43;;
20095;SDS011;10207;50.942;6.900;2023-03-01T05:18:57;17.63;;;10.60;;
20095;SDS011;10207;50.942;6.900;2023-03-01T05:21:22;21.97;;;11.40;;
20095;SDS011;10207;50.942;6.900;2023-03-01T05:23:48;30.70;;;12.37;;
20095;SDS011;10207;50.942;6.900;2023-03-01T05:26:16;20.17;;;11.23;;
20095;SDS011;10207;50.942;6.900;2023-03-01T05:28:43;23.93;;;10.87;;
20095;SDS011;10207;50.942;6.900;2023-03-01T05:31:09;20.63;;;12.30;;
20095;SDS011;10207;50.942;6.900;2023-03-01T05:33:40;21.77;;;11.57;;
20095;SDS011;10207;50.942;6.900;2023-03-01T05:36:07;31.67;;;11.80;;
20095;SDS011;10207;50.942;6.900;2023-03-01T05:38:35;21.70;;;11.83;;
20095;SDS011;10207;50.942;6.900;2023-03-01T05:41:01;21.70;;;12.17;;
20095;SDS011;10207;50.942;6.900;2023-03-01T05:43:30;21.00;;;11.07;;
20095;SDS011;10207;50.942;6.900;2023-03-01T05:45:57;25.90;;;12.13;;
20095;SDS011;10207;50.942;6.900;2023-03-01T05:48:23;19.23;;;10.87;;
20095;SDS011;10207;50.942;6.900;2023-03-01T05:50:49;22.50;;;12.03;;
20095;SDS011;10207;50.942;6.900;2023-03-01T05:53:16;21.53;;;11.83;;
20095;SDS011;10207;50.942;6.900;2023-03-01T05:55:43;23.07;;;12.47;;
20095;SDS011;10207;50.942;6.900;2023-03-01T05:58:11;25.70;;;13.30;;
20095;SDS011;10207;50.942;6.900;2023-03-01T06:00:37;21.37;;;10.70;;
20095;SDS011;10207;50.942;6.900;2023-03-01T06:03:03;24.63;;;12.23;;
20095;SDS011;10207;50.942;6.900;2023-03-01T06:05:29;31.97;;;12.00;;
20095;SDS011;10207;50.942;6.900;2023-03-01T06:07:58;22.77;;;12.60;;
20095;SDS011;10207;50.942;6.900;2023-03-01T06:10:24;22.40;;;11.77;;
20095;SDS011;10207;50.942;6.900;2023-03-01T06:12:50;27.07;;;12.60;;
20095;SDS011;10207;50.942;6.900;2023-03-01T06:15:16;24.70;;;12.90;;
20095;SDS011;10207;50.942;6.900;2023-03-01T06:17:43;25.00;;;11.97;;
20095;SDS011;10207;50.942;6.900;2023-03-01T06:20:11;20.07;;;10.53;;
20095;SDS011;10207;50.942;6.900;2023-03-01T06:22:38;19.20;;;10.47;;
20095;SDS011;10207;50.942;6.900;2023-03-01T06:25:04;21.73;;;10.57;;
20095;SDS011;10207;50.942;6.900;2023-03-01T06:27:30;22.73;;;11.60;;
20095;SDS011;10207;50.942;6.900;2023-03-01T06:29:56;19.00;;;10.03;;
20095;SDS011;10207;50.942;6.900;2023-03-01T06:32:22;21.33;;;11.17;;
20095;SDS011;10207;50.942;6.900;2023-03-01T06:34:48;19.47;;;9.90;;
20095;SDS011;10207;50.942;6.900;2023-03-01T06:37:14;18.57;;;9.93;;
20095;SDS011;10207;50.942;6.900;2023-03-01T06:39:40;19.13;;;10.40;;
20095;SDS011;10207;50.942;6.900;2023-03-01T06:42:09;21.93;;;11.43;;
20095;SDS011;10207;50.942;6.900;2023-03-01T06:44:38;19.23;;;10.63;;
20095;SDS011;10207;50.942;6.900;2023-03-01T06:47:04;19.57;;;10.30;;
20095;SDS011;10207;50.942;6.900;2023-03-01T06:49:30;23.00;;;11.47;;
20095;SDS011;10207;50.942;6.900;2023-03-01T06:51:56;21.43;;;11.83;;
20095;SDS011;10207;50.942;6.900;2023-03-01T06:54:22;18.63;;;11.53;;
20095;SDS011;10207;50.942;6.900;2023-03-01T06:56:49;29.93;;;12.37;;
20095;SDS011;10207;50.942;6.900;2023-03-01T06:59:15;23.70;;;12.27;;
20095;SDS011;10207;50.942;6.900;2023-03-01T07:01:41;22.50;;;11.33;;
20095;SDS011;10207;50.942;6.900;2023-03-01T07:04:07;16.37;;;10.73;;
20095;SDS011;10207;50.942;6.900;2023-03-01T07:06:33;21.43;;;11.47;;
20095;SDS011;10207;50.942;6.900;2023-03-01T07:08:59;19.10;;;10.60;;
20095;SDS011;10207;50.942;6.900;2023-03-01T07:11:24;23.47;;;10.93;;
20095;SDS011;10207;50.942;6.900;2023-03-01T07:13:50;19.80;;;10.53;;
20095;SDS011;10207;50.942;6.900;2023-03-01T07:16:16;52.27;;;19.37;;
20095;SDS011;10207;50.942;6.900;2023-03-01T07:18:42;22.03;;;10.23;;
20095;SDS011;10207;50.942;6.900;2023-03-01T07:21:09;18.13;;;9.47;;
20095;SDS011;10207;50.942;6.900;2023-03-01T07:23:36;18.33;;;10.07;;
20095;SDS011;10207;50.942;6.900;2023-03-01T07:26:02;15.67;;;9.10;;
20095;SDS011;10207;50.942;6.900;2023-03-01T07:28:28;17.03;;;8.77;;
20095;SDS011;10207;50.942;6.900;2023-03-01T07:30:54;16.17;;;9.50;;
20095;SDS011;10207;50.942;6.900;2023-03-01T07:33:20;21.83;;;10.13;;
20095;SDS011;10207;50.942;6.900;2023-03-01T07:35:46;21.07;;;10.63;;
20095;SDS011;10207;50.942;6.900;2023-03-01T07:38:12;28.90;;;12.07;;
20095;SDS011;10207;50.942;6.900;2023-03-01T07:40:38;27.97;;;11.33;;
20095;SDS011;10207;50.942;6.900;2023-03-01T07:43:04;30.43;;;11.37;;
20095;SDS011;10207;50.942;6.900;2023-03-01T07:45:30;23.50;;;10.60;;
20095;SDS011;10207;50.942;6.900;2023-03-01T07:47:56;25.30;;;11.23;;
20095;SDS011;10207;50.942;6.900;2023-03-01T07:50:22;33.47;;;11.87;;
20095;SDS011;10207;50.942;6.900;2023-03-01T07:52:48;25.73;;;11.13;;
20095;SDS011;10207;50.942;6.900;2023-03-01T07:55:15;24.17;;;10.93;;
20095;SDS011;10207;50.942;6.900;2023-03-01T07:57:41;27.50;;;11.13;;
20095;SDS011;10207;50.942;6.900;2023-03-01T08:00:08;18.03;;;10.17;;
20095;SDS011;10207;50.942;6.900;2023-03-01T08:02:40;16.60;;;10.00;;
20095;SDS011;10207;50.942;6.900;2023-03-01T08:05:08;19.85;;;10.60;;
20095;SDS011;10207;50.942;6.900;2023-03-01T08:07:34;13.00;;;8.77;;
20095;SDS011;10207;50.942;6.900;2023-03-01T08:10:00;17.23;;;10.07;;
20095;SDS011;10207;50.942;6.900;2023-03-01T08:12:26;13.63;;;8.82;;
20095;SDS011;10207;50.942;6.900;2023-03-01T08:14:53;13.45;;;8.93;;
20095;SDS011;10207;50.942;6.900;2023-03-01T08:17:20;13.55;;;9.18;;
20095;SDS011;10207;50.942;6.900;2023-03-01T08:19:45;15.13;;;8.88;;
20095;SDS011;10207;50.942;6.900;2023-03-01T08:22:11;13.63;;;9.20;;
20095;SDS011;10207;50.942;6.900;2023-03-01T08:24:37;15.30;;;9.73;;
20095;SDS011;10207;50.942;6.900;2023-03-01T08:27:03;15.45;;;9.93;;
20095;SDS011;10207;50.942;6.900;2023-03-01T08:29:32;15.32;;;8.82;;
20095;SDS011;10207;50.942;6.900;2023-03-01T08:31:58;13.98;;;8.25;;
20095;SDS011;10207;50.942;6.900;2023-03-01T08:34:24;15.45;;;8.45;;
20095;SDS011;10207;50.942;6.900;2023-03-01T08:36:50;15.10;;;8.50;;
20095;SDS011;10207;50.942;6.900;2023-03-01T08:39:18;12.43;;;8.75;;
20095;SDS011;10207;50.942;6.900;2023-03-01T08:41:45;16.13;;;9.43;;
20095;SDS011;10207;50.942;6.900;2023-03-01T08:44:12;18.40;;;8.85;;
20095;SDS011;10207;50.942;6.900;2023-03-01T08:46:39;14.98;;;8.52;;
20095;SDS011;10207;50.942;6.900;2023-03-01T08:49:24;15.75;;;8.40;;
20095;SDS011;10207;50.942;6.900;2023-03-01T08:51:50;13.73;;;9.52;;
20095;SDS011;10207;50.942;6.900;2023-03-01T08:54:17;16.05;;;9.07;;
20095;SDS011;10207;50.942;6.900;2023-03-01T08:56:43;15.68;;;9.52;;
20095;SDS011;10207;50.942;6.900;2023-03-01T08:59:10;14.80;;;8.50;;
20095;SDS011;10207;50.942;6.900;2023-03-01T09:01:36;13.00;;;9.15;;
20095;SDS011;10207;50.942;6.900;2023-03-01T09:04:03;14.07;;;8.77;;
20095;SDS011;10207;50.942;6.900;2023-03-01T09:06:32;15.25;;;8.73;;
20095;SDS011;10207;50.942;6.900;2023-03-01T09:09:02;13.07;;;8.23;;
20095;SDS011;10207;50.942;6.900;2023-03-01T09:11:29;11.93;;;8.40;;
20095;SDS011;10207;50.942;6.900;2023-03-01T09:13:55;12.23;;;7.75;;
20095;SDS011;10207;50.942;6.900;2023-03-01T09:16:21;14.55;;;8.82;;
20095;SDS011;10207;50.942;6.900;2023-03-01T09:18:51;12.32;;;7.95;;
20095;SDS011;10207;50.942;6.900;2023-03-01T09:21:18;11.70;;;7.28;;
20095;SDS011;10207;50.942;6.900;2023-03-01T09:23:45;11.13;;;7.90;;
20095;SDS011;10207;50.942;6.900;2023-03-01T09:26:12;11.07;;;7.20;;
20095;SDS011;10207;50.942;6.900;2023-03-01T09:28:39;11.10;;;7.00;;
20095;SDS011;10207;50.942;6.900;2023-03-01T09:31:06;13.20;;;7.10;;
20095;SDS011;10207;50.942;6.900;2023-03-01T09:33:32;11.20;;;6.78;;
20095;SDS011;10207;50.942;6.900;2023-03-01T09:36:05;12.07;;;7.68;;
20095;SDS011;10207;50.942;6.900;2023-03-01T09:38:33;12.55;;;6.97;;
20095;SDS011;10207;50.942;6.900;2023-03-01T09:40:59;15.73;;;7.55;;
20095;SDS011;10207;50.942;6.900;2023-03-01T09:45:52;10.32;;;6.88;;
20095;SDS011;10207;50.942;6.900;2023-03-01T09:48:20;11.25;;;6.32;;
20095;SDS011;10207;50.942;6.900;2023-03-01T09:50:49;12.55;;;6.65;;
20095;SDS011;10207;50.942;6.900;2023-03-01T09:53:16;10.38;;;6.30;;
20095;SDS011;10207;50.942;6.900;2023-03-01T10:01:16;13.63;;;7.80;;
20095;SDS011;10207;50.942;6.900;2023-03-01T10:04:34;10.13;;;6.95;;
20095;SDS011;10207;50.942;6.900;2023-03-01T10:06:32;13.63;;;7.13;;
20095;SDS011;10207;50.942;6.900;2023-03-01T10:09:00;13.48;;;7.47;;
20095;SDS011;10207;50.942;6.900;2023-03-01T10:11:31;11.82;;;6.93;;
20095;SDS011;10207;50.942;6.900;2023-03-01T10:13:59;10.80;;;6.70;;
20095;SDS011;10207;50.942;6.900;2023-03-01T10:18:58;10.68;;;6.82;;
20095;SDS011;10207;50.942;6.900;2023-03-01T10:21:25;11.25;;;6.45;;
20095;SDS011;10207;50.942;6.900;2023-03-01T10:23:52;19.08;;;6.10;;
20095;SDS011;10207;50.942;6.900;2023-03-01T10:28:58;13.05;;;6.70;;
20095;SDS011;10207;50.942;6.900;2023-03-01T10:31:32;10.55;;;7.15;;
20095;SDS011;10207;50.942;6.900;2023-03-01T10:34:07;9.98;;;6.22;;
20095;SDS011;10207;50.942;6.900;2023-03-01T10:36:33;11.88;;;7.30;;
20095;SDS011;10207;50.942;6.900;2023-03-01T10:39:00;12.40;;;7.90;;
20095;SDS011;10207;50.942;6.900;2023-03-01T10:41:31;11.27;;;7.35;;
20095;SDS011;10207;50.942;6.900;2023-03-01T10:43:57;13.20;;;6.60;;
20095;SDS011;10207;50.942;6.900;2023-03-01T10:51:32;11.15;;;7.53;;
20095;SDS011;10207;50.942;6.900;2023-03-01T10:53:58;12.70;;;6.38;;
20095;SDS011;10207;50.942;6.900;2023-03-01T10:56:24;14.38;;;6.85;;
20095;SDS011;10207;50.942;6.900;2023-03-01T10:58:57;11.38;;;6.93;;
20095;SDS011;10207;50.942;6.900;2023-03-01T11:01:28;12.93;;;7.72;;
20095;SDS011;10207;50.942;6.900;2023-03-01T11:06:33;11.85;;;6.68;;
20095;SDS011;10207;50.942;6.900;2023-03-01T11:12:03;10.40;;;6.70;;
20095;SDS011;10207;50.942;6.900;2023-03-01T11:14:33;10.98;;;7.00;;
20095;SDS011;10207;50.942;6.900;2023-03-01T11:20:32;10.52;;;7.00;;
20095;SDS011;10207;50.942;6.900;2023-03-01T11:22:32;12.10;;;7.57;;
20095;SDS011;10207;50.942;6.900;2023-03-01T11:25:00;10.07;;;6.65;;
20095;SDS011;10207;50.942;6.900;2023-03-01T11:27:28;10.32;;;6.60;;
20095;SDS011;10207;50.942;6.900;2023-03-01T11:32:53;11.98;;;7.40;;
20095;SDS011;10207;50.942;6.900;2023-03-01T11:35:26;12.45;;;7.32;;
20095;SDS011;10207;50.942;6.900;2023-03-01T11:38:38;10.88;;;7.35;;
20095;SDS011;10207;50.942;6.900;2023-03-01T11:41:21;13.40;;;7.72;;
20095;SDS011;10207;50.942;6.900;2023-03-01T11:51:05;11.77;;;7.28;;
20095;SDS011;10207;50.942;6.900;2023-03-01T11:58:41;10.70;;;6.30;;
20095;SDS011;10207;50.942;6.900;2023-03-01T12:03:41;14.10;;;8.05;;
20095;SDS011;10207;50.942;6.900;2023-03-01T12:26:44;10.70;;;7.15;;
20095;SDS011;10207;50.942;6.900;2023-03-01T12:36:43;10.75;;;6.40;;
20095;SDS011;10207;50.942;6.900;2023-03-01T12:44:15;10.30;;;6.35;;
20095;SDS011;10207;50.942;6.900;2023-03-01T12:47:01;10.07;;;5.85;;
20095;SDS011;10207;50.942;6.900;2023-03-01T12:49:29;10.52;;;6.53;;
20095;SDS011;10207;50.942;6.900;2023-03-01T12:52:41;12.57;;;6.75;;
20095;SDS011;10207;50.942;6.900;2023-03-01T12:54:46;11.15;;;6.90;;
20095;SDS011;10207;50.942;6.900;2023-03-01T12:57:47;11.55;;;7.22;;
20095;SDS011;10207;50.942;6.900;2023-03-01T13:02:58;9.55;;;5.75;;
20095;SDS011;10207;50.942;6.900;2023-03-01T13:05:33;13.27;;;6.93;;
20095;SDS011;10207;50.942;6.900;2023-03-01T13:13:14;10.00;;;6.18;;
20095;SDS011;10207;50.942;6.900;2023-03-01T13:15:44;9.93;;;5.43;;
20095;SDS011;10207;50.942;6.900;2023-03-01T13:28:37;12.88;;;7.20;;
20095;SDS011;10207;50.942;6.900;2023-03-01T13:31:05;9.15;;;6.00;;
20095;SDS011;10207;50.942;6.900;2023-03-01T13:35:59;9.77;;;5.97;;
20095;SDS011;10207;50.942;6.900;2023-03-01T13:41:09;16.30;;;4.78;;
20095;SDS011;10207;50.942;6.900;2023-03-01T13:43:36;6.20;;;4.03;;
20095;SDS011;10207;50.942;6.900;2023-03-01T13:46:10;10.20;;;5.55;;
20095;SDS011;10207;50.942;6.900;2023-03-01T13:48:37;4.43;;;2.97;;
20095;SDS011;10207;50.942;6.900;2023-03-01T13:51:04;13.80;;;6.25;;
20095;SDS011;10207;50.942;6.900;2023-03-01T13:53:31;8.88;;;5.05;;
20095;SDS011;10207;50.942;6.900;2023-03-01T13:56:03;9.13;;;5.68;;
20095;SDS011;10207;50.942;6.900;2023-03-01T13:58:33;9.00;;;5.10;;
20095;SDS011;10207;50.942;6.900;2023-03-01T14:03:54;9.38;;;4.78;;
20095;SDS011;10207;50.942;6.900;2023-03-01T14:06:20;9.95;;;6.20;;
20095;SDS011;10207;50.942;6.900;2023-03-01T14:08:48;11.20;;;5.22;;
20095;SDS011;10207;50.942;6.900;2023-03-01T14:21:42;11.30;;;5.65;;
20095;SDS011;10207;50.942;6.900;2023-03-01T14:24:21;11.32;;;5.78;;
20095;SDS011;10207;50.942;6.900;2023-03-01T14:26:49;23.25;;;10.65;;
20095;SDS011;10207;50.942;6.900;2023-03-01T14:29:29;11.50;;;6.13;;
20095;SDS011;10207;50.942;6.900;2023-03-01T14:32:08;9.60;;;4.70;;
20095;SDS011;10207;50.942;6.900;2023-03-01T14:34:34;10.95;;;6.90;;
20095;SDS011;10207;50.942;6.900;2023-03-01T14:37:42;11.48;;;6.60;;
20095;SDS011;10207;50.942;6.900;2023-03-01T14:39:49;13.20;;;5.03;;
20095;SDS011;10207;50.942;6.900;2023-03-01T14:42:15;13.57;;;6.68;;
20095;SDS011;10207;50.942;6.900;2023-03-01T14:44:42;9.70;;;5.15;;
20095;SDS011;10207;50.942;6.900;2023-03-01T14:47:12;9.40;;;5.05;;
20095;SDS011;10207;50.942;6.900;2023-03-01T14:49:40;12.23;;;5.65;;
20095;SDS011;10207;50.942;6.900;2023-03-01T14:52:07;10.30;;;5.95;;
20095;SDS011;10207;50.942;6.900;2023-03-01T14:54:44;8.40;;;5.47;;
20095;SDS011;10207;50.942;6.900;2023-03-01T14:57:13;9.80;;;4.47;;
20095;SDS011;10207;50.942;6.900;2023-03-01T14:59:40;11.00;;;5.65;;
20095;SDS011;10207;50.942;6.900;2023-03-01T15:02:12;9.00;;;4.90;;
20095;SDS011;10207;50.942;6.900;2023-03-01T15:04:46;10.60;;;5.63;;
20095;SDS011;10207;50.942;6.900;2023-03-01T15:07:13;15.20;;;6.25;;
20095;SDS011;10207;50.942;6.900;2023-03-01T15:09:39;7.55;;;4.93;;
20095;SDS011;10207;50.942;6.900;2023-03-01T15:17:49;10.25;;;5.55;;
20095;SDS011;10207;50.942;6.900;2023-03-01T15:20:17;8.27;;;4.85;;
20095;SDS011;10207;50.942;6.900;2023-03-01T15:22:43;10.18;;;5.68;;
20095;SDS011;10207;50.942;6.900;2023-03-01T15:25:15;10.27;;;4.95;;
20095;SDS011;10207;50.942;6.900;2023-03-01T15:27:44;12.15;;;5.55;;
20095;SDS011;10207;50.942;6.900;2023-03-01T15:30:18;11.57;;;6.05;;
20095;SDS011;10207;50.942;6.900;2023-03-01T15:32:45;8.20;;;5.38;;
20095;SDS011;10207;50.942;6.900;2023-03-01T15:37:56;8.07;;;4.65;;
20095;SDS011;10207;50.942;6.900;2023-03-01T15:42:57;9.70;;;4.78;;
20095;SDS011;10207;50.942;6.900;2023-03-01T15:45:26;10.63;;;5.03;;
20095;SDS011;10207;50.942;6.900;2023-03-01T15:48:03;11.40;;;4.88;;
20095;SDS011;10207;50.942;6.900;2023-03-01T15:50:31;11.07;;;5.65;;
20095;SDS011;10207;50.942;6.900;2023-03-01T15:53:03;11.80;;;5.95;;
20095;SDS011;10207;50.942;6.900;2023-03-01T15:55:32;10.60;;;5.57;;
20095;SDS011;10207;50.942;6.900;2023-03-01T15:58:18;9.70;;;5.35;;
20095;SDS011;10207;50.942;6.900;2023-03-01T16:00:44;14.55;;;5.85;;
20095;SDS011;10207;50.942;6.900;2023-03-01T16:03:11;9.50;;;4.85;;
20095;SDS011;10207;50.942;6.900;2023-03-01T16:05:37;11.85;;;5.05;;
20095;SDS011;10207;50.942;6.900;2023-03-01T16:08:04;11.18;;;5.18;;
20095;SDS011;10207;50.942;6.900;2023-03-01T16:10:31;8.43;;;4.50;;
20095;SDS011;10207;50.942;6.900;2023-03-01T16:12:58;9.00;;;4.95;;
20095;SDS011;10207;50.942;6.900;2023-03-01T16:15:25;9.63;;;5.22;;
20095;SDS011;10207;50.942;6.900;2023-03-01T16:17:53;11.23;;;4.90;;
20095;SDS011;10207;50.942;6.900;2023-03-01T16:20:22;10.80;;;5.65;;
20095;SDS011;10207;50.942;6.900;2023-03-01T16:22:48;10.02;;;5.78;;
20095;SDS011;10207;50.942;6.900;2023-03-01T16:25:15;10.35;;;5.75;;
20095;SDS011;10207;50.942;6.900;2023-03-01T16:27:42;12.60;;;6.03;;
20095;SDS011;10207;50.942;6.900;2023-03-01T16:30:08;9.65;;;5.47;;
20095;SDS011;10207;50.942;6.900;2023-03-01T16:32:41;13.52;;;7.97;;
20095;SDS011;10207;50.942;6.900;2023-03-01T16:35:07;14.65;;;6.15;;
20095;SDS011;10207;50.942;6.900;2023-03-01T16:37:35;10.88;;;5.78;;
20095;SDS011;10207;50.942;6.900;2023-03-01T16:40:01;14.95;;;5.85;;
20095;SDS011;10207;50.942;6.900;2023-03-01T16:42:26;10.20;;;5.20;;
20095;SDS011;10207;50.942;6.900;2023-03-01T16:44:54;10.95;;;4.97;;
20095;SDS011;10207;50.942;6.900;2023-03-01T16:47:21;15.40;;;5.72;;
20095;SDS011;10207;50.942;6.900;2023-03-01T16:49:47;13.98;;;5.95;;
20095;SDS011;10207;50.942;6.900;2023-03-01T16:52:13;14.60;;;6.53;;
20095;SDS011;10207;50.942;6.900;2023-03-01T16:54:39;5.18;;;2.83;;
20095;SDS011;10207;50.942;6.900;2023-03-01T16:57:04;10.35;;;5.60;;